sensor_id;sensor_type;location;lat;lon;timestamp;temperature;humidity
18240;DHT22;9244;50.828;4.718;2023-12-20T00:02:04;5.90;99.90
18240;DHT22;9244;50.828;4.718;2023-12-20T00:04:32;5.90;99.90
18240;DHT22;9244;50.828;4.718;2023-12-20T00:07:00;5.80;99.90
18240;DHT22;9244;50.828;4.718;2023-12-20T00:09:27;5.80;99.90
18240;DHT22;9244;50.828;4.718;2023-12-20T00:11:57;5.80;99.90
18240;DHT22;9244;50.828;4.718;2023-12-20T00:14:23;5.70;99.90
18240;DHT22;9244;50.828;4.718;2023-12-20T00:16:50;5.70;99.90
18240;DHT22;9244;50.828;4.718;2023-12-20T00:19:18;5.70;99.90
18240;DHT22;9244;50.828;4.718;2023-12-20T00:21:44;5.70;99.90
18240;DHT22;9244;50.828;4.718;2023-12-20T00:24:15;5.70;99.90
18240;DHT22;9244;50.828;4.718;2023-12-20T00:26:40;5.70;99.90
18240;DHT22;9244;50.828;4.718;2023-12-20T00:29:06;5.70;99.90
18240;DHT22;9244;50.828;4.718;2023-12-20T00:31:31;5.70;99.90
18240;DHT22;9244;50.828;4.718;2023-12-20T00:33:59;5.80;99.90
18240;DHT22;9244;50.828;4.718;2023-12-20T00:36:25;6.00;99.90
18240;DHT22;9244;50.828;4.718;2023-12-20T00:38:50;6.00;99.90
18240;DHT22;9244;50.828;4.718;2023-12-20T00:41:17;5.90;99.90
18240;DHT22;9244;50.828;4.718;2023-12-20T00:43:42;5.80;99.90
18240;DHT22;9244;50.828;4.718;2023-12-20T00:46:08;5.70;99.90
18240;DHT22;9244;50.828;4.718;2023-12-20T00:48:34;5.80;99.90
18240;DHT22;9244;50.828;4.718;2023-12-20T00:50:59;5.70;99.90
18240;DHT22;9244;50.828;4.718;2023-12-20T00:53:25;5.60;99.90
18240;DHT22;9244;50.828;4.718;2023-12-20T00:55:51;5.50;99.90
18240;DHT22;9244;50.828;4.718;2023-12-20T00:58:18;5.50;99.90
18240;DHT22;9244;50.828;4.718;2023-12-20T01:00:44;5.60;99.90
18240;DHT22;9244;50.828;4.718;2023-12-20T01:03:10;5.60;99.90
18240;DHT22;9244;50.828;4.718;2023-12-20T01:05:35;5.60;99.90
18240;DHT22;9244;50.828;4.718;2023-12-20T01:08:03;5.50;99.90
18240;DHT22;9244;50.828;4.718;2023-12-20T01:10:29;5.50;99.90
18240;DHT22;9244;50.828;4.718;2023-12-20T01:12:55;5.40;99.90
18240;DHT22;9244;50.828;4.718;2023-12-20T01:15:20;5.40;99.90
18240;DHT22;9244;50.828;4.718;2023-12-20T01:17:46;5.40;99.90
18240;DHT22;9244;50.828;4.718;2023-12-20T01:20:13;5.40;99.90
18240;DHT22;9244;50.828;4.718;2023-12-20T01:22:38;5.30;99.90
18240;DHT22;9244;50.828;4.718;2023-12-20T01:25:09;5.30;99.90
18240;DHT22;9244;50.828;4.718;2023-12-20T01:27:35;5.30;99.90
18240;DHT22;9244;50.828;4.718;2023-12-20T01:30:03;5.30;99.90
18240;DHT22;9244;50.828;4.718;2023-12-20T01:32:30;5.30;99.90
18240;DHT22;9244;50.828;4.718;2023-12-20T01:34:56;5.30;99.90
18240;DHT22;9244;50.828;4.718;2023-12-20T01:37:22;5.30;99.90
18240;DHT22;9244;50.828;4.718;2023-12-20T01:39:50;5.20;99.90
18240;DHT22;9244;50.828;4.718;2023-12-20T01:42:16;5.20;99.90
18240;DHT22;9244;50.828;4.718;2023-12-20T01:44:42;5.20;99.90
18240;DHT22;9244;50.828;4.718;2023-12-20T01:47:10;5.10;99.90
18240;DHT22;9244;50.828;4.718;2023-12-20T01:49:38;5.20;99.90
18240;DHT22;9244;50.828;4.718;2023-12-20T01:52:04;5.20;99.90
18240;DHT22;9244;50.828;4.718;2023-12-20T01:54:36;5.10;99.90
18240;DHT22;9244;50.828;4.718;2023-12-20T01:57:03;5.10;99.90
18240;DHT22;9244;50.828;4.718;2023-12-20T01:59:31;5.20;99.90
18240;DHT22;9244;50.828;4.718;2023-12-20T02:01:56;5.20;99.90
18240;DHT22;9244;50.828;4.718;2023-12-20T02:04:25;5.10;99.90
18240;DHT22;9244;50.828;4.718;2023-12-20T02:06:56;5.10;99.90
18240;DHT22;9244;50.828;4.718;2023-12-20T02:09:23;5.10;99.90
18240;DHT22;9244;50.828;4.718;2023-12-20T02:11:51;5.10;99.90
18240;DHT22;9244;50.828;4.718;2023-12-20T02:14:19;5.10;99.90
18240;DHT22;9244;50.828;4.718;2023-12-20T02:16:46;5.20;99.90
18240;DHT22;9244;50.828;4.718;2023-12-20T02:19:15;5.20;99.90
18240;DHT22;9244;50.828;4.718;2023-12-20T02:21:43;5.20;99.90
18240;DHT22;9244;50.828;4.718;2023-12-20T02:24:10;5.10;99.90
18240;DHT22;9244;50.828;4.718;2023-12-20T02:26:36;5.10;99.90
18240;DHT22;9244;50.828;4.718;2023-12-20T02:29:02;5.10;99.90
18240;DHT22;9244;50.828;4.718;2023-12-20T02:31:30;5.10;99.90
18240;DHT22;9244;50.828;4.718;2023-12-20T02:33:56;5.20;99.90
18240;DHT22;9244;50.828;4.718;2023-12-20T02:36:21;5.10;99.90
18240;DHT22;9244;50.828;4.718;2023-12-20T02:38:49;5.10;99.90
18240;DHT22;9244;50.828;4.718;2023-12-20T02:41:16;5.10;99.90
18240;DHT22;9244;50.828;4.718;2023-12-20T02:43:43;5.20;99.90
18240;DHT22;9244;50.828;4.718;2023-12-20T02:46:12;5.20;99.90
18240;DHT22;9244;50.828;4.718;2023-12-20T02:48:39;5.30;99.90
18240;DHT22;9244;50.828;4.718;2023-12-20T02:51:04;5.30;99.90
18240;DHT22;9244;50.828;4.718;2023-12-20T02:53:35;5.40;99.90
18240;DHT22;9244;50.828;4.718;2023-12-20T02:56:03;5.50;99.90
18240;DHT22;9244;50.828;4.718;2023-12-20T02:58:28;5.50;99.90
18240;DHT22;9244;50.828;4.718;2023-12-20T03:00:54;5.50;99.90
18240;DHT22;9244;50.828;4.718;2023-12-20T03:03:20;5.50;99.90
18240;DHT22;9244;50.828;4.718;2023-12-20T03:05:45;5.60;99.90
18240;DHT22;9244;50.828;4.718;2023-12-20T03:08:11;5.60;99.90
18240;DHT22;9244;50.828;4.718;2023-12-20T03:10:40;5.60;99.90
18240;DHT22;9244;50.828;4.718;2023-12-20T03:13:05;5.60;99.90
18240;DHT22;9244;50.828;4.718;2023-12-20T03:15:33;5.60;99.90
18240;DHT22;9244;50.828;4.718;2023-12-20T03:17:59;5.60;99.90
18240;DHT22;9244;50.828;4.718;2023-12-20T03:20:24;5.60;99.90
18240;DHT22;9244;50.828;4.718;2023-12-20T03:22:51;5.60;99.90
18240;DHT22;9244;50.828;4.718;2023-12-20T03:25:19;5.60;99.90
18240;DHT22;9244;50.828;4.718;2023-12-20T03:27:48;5.60;99.90
18240;DHT22;9244;50.828;4.718;2023-12-20T03:30:13;5.60;99.90
18240;DHT22;9244;50.828;4.718;2023-12-20T03:32:39;5.60;99.90
18240;DHT22;9244;50.828;4.718;2023-12-20T03:35:10;5.60;99.90
18240;DHT22;9244;50.828;4.718;2023-12-20T03:37:37;5.50;99.90
18240;DHT22;9244;50.828;4.718;2023-12-20T03:40:08;5.40;99.90
18240;DHT22;9244;50.828;4.718;2023-12-20T03:42:34;5.50;99.90
18240;DHT22;9244;50.828;4.718;2023-12-20T03:45:00;5.40;99.90
18240;DHT22;9244;50.828;4.718;2023-12-20T03:47:30;5.40;99.90
18240;DHT22;9244;50.828;4.718;2023-12-20T03:49:56;5.40;99.90
18240;DHT22;9244;50.828;4.718;2023-12-20T03:52:23;5.40;99.90
18240;DHT22;9244;50.828;4.718;2023-12-20T03:54:49;5.40;99.90
18240;DHT22;9244;50.828;4.718;2023-12-20T03:57:17;5.30;99.90
18240;DHT22;9244;50.828;4.718;2023-12-20T03:59:45;5.20;99.90
18240;DHT22;9244;50.828;4.718;2023-12-20T04:02:10;5.20;99.90
18240;DHT22;9244;50.828;4.718;2023-12-20T04:04:36;5.20;99.90
18240;DHT22;9244;50.828;4.718;2023-12-20T04:07:01;5.30;99.90
18240;DHT22;9244;50.828;4.718;2023-12-20T04:09:27;5.30;99.90
18240;DHT22;9244;50.828;4.718;2023-12-20T04:11:52;5.40;99.90
18240;DHT22;9244;50.828;4.718;2023-12-20T04:14:18;5.40;99.90
18240;DHT22;9244;50.828;4.718;2023-12-20T04:16:44;5.50;99.90
18240;DHT22;9244;50.828;4.718;2023-12-20T04:19:12;5.50;99.90
18240;DHT22;9244;50.828;4.718;2023-12-20T04:21:40;5.50;99.90
18240;DHT22;9244;50.828;4.718;2023-12-20T04:24:05;5.60;99.90
18240;DHT22;9244;50.828;4.718;2023-12-20T04:26:31;5.60;99.90
18240;DHT22;9244;50.828;4.718;2023-12-20T04:28:59;5.60;99.90
18240;DHT22;9244;50.828;4.718;2023-12-20T04:31:25;5.50;99.90
18240;DHT22;9244;50.828;4.718;2023-12-20T04:33:50;5.50;99.90
18240;DHT22;9244;50.828;4.718;2023-12-20T04:36:18;5.50;99.90
18240;DHT22;9244;50.828;4.718;2023-12-20T04:38:46;5.50;99.90
18240;DHT22;9244;50.828;4.718;2023-12-20T04:41:14;5.40;99.90
18240;DHT22;9244;50.828;4.718;2023-12-20T04:43:44;5.40;99.90
18240;DHT22;9244;50.828;4.718;2023-12-20T04:46:14;5.30;99.90
18240;DHT22;9244;50.828;4.718;2023-12-20T04:48:42;5.30;99.90
18240;DHT22;9244;50.828;4.718;2023-12-20T04:51:08;5.30;99.90
18240;DHT22;9244;50.828;4.718;2023-12-20T04:53:36;5.30;99.90
18240;DHT22;9244;50.828;4.718;2023-12-20T04:56:04;5.30;99.90
18240;DHT22;9244;50.828;4.718;2023-12-20T04:58:29;5.40;99.90
18240;DHT22;9244;50.828;4.718;2023-12-20T05:00:55;5.40;99.90
18240;DHT22;9244;50.828;4.718;2023-12-20T05:03:23;5.40;99.90
18240;DHT22;9244;50.828;4.718;2023-12-20T05:05:53;5.50;99.90
18240;DHT22;9244;50.828;4.718;2023-12-20T05:08:21;5.50;99.90
18240;DHT22;9244;50.828;4.718;2023-12-20T05:10:51;5.50;99.90
18240;DHT22;9244;50.828;4.718;2023-12-20T05:13:17;5.60;99.90
18240;DHT22;9244;50.828;4.718;2023-12-20T05:15:47;5.60;99.90
18240;DHT22;9244;50.828;4.718;2023-12-20T05:18:15;5.50;99.90
18240;DHT22;9244;50.828;4.718;2023-12-20T05:20:45;5.50;99.90
18240;DHT22;9244;50.828;4.718;2023-12-20T05:23:14;5.40;99.90
18240;DHT22;9244;50.828;4.718;2023-12-20T05:25:39;5.40;99.90
18240;DHT22;9244;50.828;4.718;2023-12-20T05:28:07;5.50;99.90
18240;DHT22;9244;50.828;4.718;2023-12-20T05:30:33;5.50;99.90
18240;DHT22;9244;50.828;4.718;2023-12-20T05:32:58;5.60;99.90
18240;DHT22;9244;50.828;4.718;2023-12-20T05:35:24;5.60;99.90
18240;DHT22;9244;50.828;4.718;2023-12-20T05:37:52;5.60;99.90
18240;DHT22;9244;50.828;4.718;2023-12-20T05:40:18;5.50;99.90
18240;DHT22;9244;50.828;4.718;2023-12-20T05:42:43;5.50;99.90
18240;DHT22;9244;50.828;4.718;2023-12-20T05:45:09;5.50;99.90
18240;DHT22;9244;50.828;4.718;2023-12-20T05:47:37;5.50;99.90
18240;DHT22;9244;50.828;4.718;2023-12-20T05:50:03;5.40;99.90
18240;DHT22;9244;50.828;4.718;2023-12-20T05:52:32;5.40;99.90
18240;DHT22;9244;50.828;4.718;2023-12-20T05:54:57;5.30;99.90
18240;DHT22;9244;50.828;4.718;2023-12-20T05:57:31;5.30;99.90
18240;DHT22;9244;50.828;4.718;2023-12-20T05:59:56;5.30;99.90
18240;DHT22;9244;50.828;4.718;2023-12-20T06:02:22;5.30;99.90
18240;DHT22;9244;50.828;4.718;2023-12-20T06:04:50;5.30;99.90
18240;DHT22;9244;50.828;4.718;2023-12-20T06:07:18;5.30;99.90
18240;DHT22;9244;50.828;4.718;2023-12-20T06:09:49;5.30;99.90
18240;DHT22;9244;50.828;4.718;2023-12-20T06:12:17;5.30;99.90
18240;DHT22;9244;50.828;4.718;2023-12-20T06:14:47;5.40;99.90
18240;DHT22;9244;50.828;4.718;2023-12-20T06:17:13;5.40;99.90
18240;DHT22;9244;50.828;4.718;2023-12-20T06:19:43;5.50;99.90
18240;DHT22;9244;50.828;4.718;2023-12-20T06:22:10;5.50;99.90
18240;DHT22;9244;50.828;4.718;2023-12-20T06:24:36;5.50;99.90
18240;DHT22;9244;50.828;4.718;2023-12-20T06:27:02;5.50;99.90
18240;DHT22;9244;50.828;4.718;2023-12-20T06:29:28;5.60;99.90
18240;DHT22;9244;50.828;4.718;2023-12-20T06:31:53;5.60;99.90
18240;DHT22;9244;50.828;4.718;2023-12-20T06:34:21;5.60;99.90
18240;DHT22;9244;50.828;4.718;2023-12-20T06:36:47;5.70;99.90
18240;DHT22;9244;50.828;4.718;2023-12-20T06:39:15;5.70;99.90
18240;DHT22;9244;50.828;4.718;2023-12-20T06:41:43;5.70;99.90
18240;DHT22;9244;50.828;4.718;2023-12-20T06:44:11;5.70;99.90
18240;DHT22;9244;50.828;4.718;2023-12-20T06:46:38;5.70;99.90
18240;DHT22;9244;50.828;4.718;2023-12-20T06:49:04;5.70;99.90
18240;DHT22;9244;50.828;4.718;2023-12-20T06:51:30;5.70;99.90
18240;DHT22;9244;50.828;4.718;2023-12-20T06:53:56;5.70;99.90
18240;DHT22;9244;50.828;4.718;2023-12-20T06:56:22;5.60;99.90
18240;DHT22;9244;50.828;4.718;2023-12-20T06:58:47;5.60;99.90
18240;DHT22;9244;50.828;4.718;2023-12-20T07:01:14;5.60;99.90
18240;DHT22;9244;50.828;4.718;2023-12-20T07:03:40;5.60;99.90
18240;DHT22;9244;50.828;4.718;2023-12-20T07:06:11;5.70;99.90
18240;DHT22;9244;50.828;4.718;2023-12-20T07:08:36;5.70;99.90
18240;DHT22;9244;50.828;4.718;2023-12-20T07:11:04;5.60;99.90
18240;DHT22;9244;50.828;4.718;2023-12-20T07:13:32;5.50;99.90
18240;DHT22;9244;50.828;4.718;2023-12-20T07:15:57;5.60;99.90
18240;DHT22;9244;50.828;4.718;2023-12-20T07:18:28;5.60;99.90
18240;DHT22;9244;50.828;4.718;2023-12-20T07:20:56;5.50;99.90
18240;DHT22;9244;50.828;4.718;2023-12-20T07:23:24;5.40;99.90
18240;DHT22;9244;50.828;4.718;2023-12-20T07:25:51;5.30;99.90
18240;DHT22;9244;50.828;4.718;2023-12-20T07:28:16;5.30;99.90
18240;DHT22;9244;50.828;4.718;2023-12-20T07:30:42;5.40;99.90
18240;DHT22;9244;50.828;4.718;2023-12-20T07:33:08;5.40;99.90
18240;DHT22;9244;50.828;4.718;2023-12-20T07:35:37;5.40;99.90
18240;DHT22;9244;50.828;4.718;2023-12-20T07:38:03;5.40;99.90
18240;DHT22;9244;50.828;4.718;2023-12-20T07:40:31;5.40;99.90
18240;DHT22;9244;50.828;4.718;2023-12-20T07:42:59;5.30;99.90
18240;DHT22;9244;50.828;4.718;2023-12-20T07:45:25;5.30;99.90
18240;DHT22;9244;50.828;4.718;2023-12-20T07:47:51;5.30;99.90
18240;DHT22;9244;50.828;4.718;2023-12-20T07:50:16;5.30;99.90
18240;DHT22;9244;50.828;4.718;2023-12-20T07:52:47;5.30;99.90
18240;DHT22;9244;50.828;4.718;2023-12-20T07:55:15;5.30;99.90
18240;DHT22;9244;50.828;4.718;2023-12-20T07:57:40;5.30;99.90
18240;DHT22;9244;50.828;4.718;2023-12-20T08:00:06;5.30;99.90
18240;DHT22;9244;50.828;4.718;2023-12-20T08:02:32;5.30;99.90
18240;DHT22;9244;50.828;4.718;2023-12-20T08:04:58;5.20;99.90
18240;DHT22;9244;50.828;4.718;2023-12-20T08:07:28;5.20;99.90
18240;DHT22;9244;50.828;4.718;2023-12-20T08:09:56;5.20;99.90
18240;DHT22;9244;50.828;4.718;2023-12-20T08:12:22;5.20;99.90
18240;DHT22;9244;50.828;4.718;2023-12-20T08:14:48;5.20;99.90
18240;DHT22;9244;50.828;4.718;2023-12-20T08:17:15;5.20;99.90
18240;DHT22;9244;50.828;4.718;2023-12-20T08:19:41;5.20;99.90
18240;DHT22;9244;50.828;4.718;2023-12-20T08:22:09;5.10;99.90
18240;DHT22;9244;50.828;4.718;2023-12-20T08:24:35;5.10;99.90
18240;DHT22;9244;50.828;4.718;2023-12-20T08:27:07;5.10;99.90
18240;DHT22;9244;50.828;4.718;2023-12-20T08:29:35;5.20;99.90
18240;DHT22;9244;50.828;4.718;2023-12-20T08:32:03;5.20;99.90
18240;DHT22;9244;50.828;4.718;2023-12-20T08:34:32;5.20;99.90
18240;DHT22;9244;50.828;4.718;2023-12-20T08:36:58;5.30;99.90
18240;DHT22;9244;50.828;4.718;2023-12-20T08:39:25;5.20;99.90
18240;DHT22;9244;50.828;4.718;2023-12-20T08:41:55;5.20;99.90
18240;DHT22;9244;50.828;4.718;2023-12-20T08:44:20;5.30;99.90
18240;DHT22;9244;50.828;4.718;2023-12-20T08:46:52;5.40;99.90
18240;DHT22;9244;50.828;4.718;2023-12-20T08:49:18;5.50;99.90
18240;DHT22;9244;50.828;4.718;2023-12-20T08:51:46;5.60;99.90
18240;DHT22;9244;50.828;4.718;2023-12-20T08:54:13;5.70;99.90
18240;DHT22;9244;50.828;4.718;2023-12-20T08:56:39;5.90;99.90
18240;DHT22;9244;50.828;4.718;2023-12-20T08:59:05;6.10;99.90
18240;DHT22;9244;50.828;4.718;2023-12-20T09:01:30;6.40;99.90
18240;DHT22;9244;50.828;4.718;2023-12-20T09:03:56;6.60;99.90
18240;DHT22;9244;50.828;4.718;2023-12-20T09:06:24;6.60;99.90
18240;DHT22;9244;50.828;4.718;2023-12-20T09:08:50;6.50;99.90
18240;DHT22;9244;50.828;4.718;2023-12-20T09:11:15;6.30;99.90
18240;DHT22;9244;50.828;4.718;2023-12-20T09:13:43;6.20;99.90
18240;DHT22;9244;50.828;4.718;2023-12-20T09:16:09;6.20;99.90
18240;DHT22;9244;50.828;4.718;2023-12-20T09:18:41;6.40;99.90
18240;DHT22;9244;50.828;4.718;2023-12-20T09:21:06;6.50;99.90
18240;DHT22;9244;50.828;4.718;2023-12-20T09:23:32;6.80;99.90
18240;DHT22;9244;50.828;4.718;2023-12-20T09:25:57;7.00;99.90
18240;DHT22;9244;50.828;4.718;2023-12-20T09:28:23;7.40;99.90
18240;DHT22;9244;50.828;4.718;2023-12-20T09:30:51;7.40;99.90
18240;DHT22;9244;50.828;4.718;2023-12-20T09:33:16;7.20;99.90
18240;DHT22;9244;50.828;4.718;2023-12-20T09:35:42;6.80;99.90
18240;DHT22;9244;50.828;4.718;2023-12-20T09:38:10;6.50;99.90
18240;DHT22;9244;50.828;4.718;2023-12-20T09:40:36;6.60;99.90
18240;DHT22;9244;50.828;4.718;2023-12-20T09:43:11;6.50;99.90
18240;DHT22;9244;50.828;4.718;2023-12-20T09:45:39;7.20;99.90
18240;DHT22;9244;50.828;4.718;2023-12-20T09:48:10;7.60;99.90
18240;DHT22;9244;50.828;4.718;2023-12-20T09:50:36;7.70;99.90
18240;DHT22;9244;50.828;4.718;2023-12-20T09:53:02;7.60;99.90
18240;DHT22;9244;50.828;4.718;2023-12-20T09:55:32;7.60;99.90
18240;DHT22;9244;50.828;4.718;2023-12-20T09:57:59;7.30;99.90
18240;DHT22;9244;50.828;4.718;2023-12-20T10:00:25;7.20;99.90
18240;DHT22;9244;50.828;4.718;2023-12-20T10:02:57;7.30;99.90
18240;DHT22;9244;50.828;4.718;2023-12-20T10:05:30;7.30;99.90
18240;DHT22;9244;50.828;4.718;2023-12-20T10:07:58;7.30;99.90
18240;DHT22;9244;50.828;4.718;2023-12-20T10:10:24;7.30;99.90
18240;DHT22;9244;50.828;4.718;2023-12-20T10:13:04;7.30;99.90
18240;DHT22;9244;50.828;4.718;2023-12-20T10:15:33;7.30;99.90
18240;DHT22;9244;50.828;4.718;2023-12-20T10:18:00;7.30;99.90
18240;DHT22;9244;50.828;4.718;2023-12-20T10:20:29;7.30;99.90
18240;DHT22;9244;50.828;4.718;2023-12-20T10:22:56;7.30;99.90
18240;DHT22;9244;50.828;4.718;2023-12-20T10:25:22;7.40;99.90
18240;DHT22;9244;50.828;4.718;2023-12-20T10:27:49;7.40;99.90
18240;DHT22;9244;50.828;4.718;2023-12-20T10:30:19;7.50;99.90
18240;DHT22;9244;50.828;4.718;2023-12-20T10:32:47;7.50;99.90
18240;DHT22;9244;50.828;4.718;2023-12-20T10:35:13;7.60;99.90
18240;DHT22;9244;50.828;4.718;2023-12-20T10:37:39;7.50;99.90
18240;DHT22;9244;50.828;4.718;2023-12-20T10:40:05;7.50;99.90
18240;DHT22;9244;50.828;4.718;2023-12-20T10:42:32;7.50;99.90
18240;DHT22;9244;50.828;4.718;2023-12-20T10:45:01;7.50;99.90
18240;DHT22;9244;50.828;4.718;2023-12-20T10:47:28;7.60;99.90
18240;DHT22;9244;50.828;4.718;2023-12-20T10:49:56;7.60;99.90
18240;DHT22;9244;50.828;4.718;2023-12-20T10:52:29;7.50;99.90
18240;DHT22;9244;50.828;4.718;2023-12-20T10:54:56;7.60;99.90
18240;DHT22;9244;50.828;4.718;2023-12-20T10:57:22;7.60;99.90
18240;DHT22;9244;50.828;4.718;2023-12-20T10:59:56;7.60;99.90
18240;DHT22;9244;50.828;4.718;2023-12-20T11:02:25;7.60;99.90
18240;DHT22;9244;50.828;4.718;2023-12-20T11:04:55;7.70;99.90
18240;DHT22;9244;50.828;4.718;2023-12-20T11:07:37;7.70;99.90
18240;DHT22;9244;50.828;4.718;2023-12-20T11:13:02;7.80;99.90
18240;DHT22;9244;50.828;4.718;2023-12-20T11:15:37;7.80;99.90
18240;DHT22;9244;50.828;4.718;2023-12-20T11:18:04;7.80;99.90
18240;DHT22;9244;50.828;4.718;2023-12-20T11:20:39;7.90;99.90
18240;DHT22;9244;50.828;4.718;2023-12-20T11:23:06;7.90;99.90
18240;DHT22;9244;50.828;4.718;2023-12-20T11:25:53;7.80;99.90
18240;DHT22;9244;50.828;4.718;2023-12-20T11:28:26;7.90;99.90
18240;DHT22;9244;50.828;4.718;2023-12-20T11:30:57;7.90;99.90
18240;DHT22;9244;50.828;4.718;2023-12-20T11:33:27;7.80;99.90
18240;DHT22;9244;50.828;4.718;2023-12-20T11:35:59;7.80;99.90
18240;DHT22;9244;50.828;4.718;2023-12-20T11:38:25;7.80;99.90
18240;DHT22;9244;50.828;4.718;2023-12-20T11:40:54;7.90;99.90
18240;DHT22;9244;50.828;4.718;2023-12-20T11:43:35;7.70;99.90
18240;DHT22;9244;50.828;4.718;2023-12-20T11:46:06;7.40;99.90
18240;DHT22;9244;50.828;4.718;2023-12-20T11:48:33;7.40;99.90
18240;DHT22;9244;50.828;4.718;2023-12-20T11:50:59;7.40;99.90
18240;DHT22;9244;50.828;4.718;2023-12-20T11:53:29;7.30;99.90
18240;DHT22;9244;50.828;4.718;2023-12-20T11:55:56;7.30;99.90
18240;DHT22;9244;50.828;4.718;2023-12-20T11:58:21;7.30;99.90
18240;DHT22;9244;50.828;4.718;2023-12-20T12:00:49;7.30;99.90
18240;DHT22;9244;50.828;4.718;2023-12-20T12:03:15;7.30;99.90
18240;DHT22;9244;50.828;4.718;2023-12-20T12:05:51;7.30;99.90
18240;DHT22;9244;50.828;4.718;2023-12-20T12:08:17;7.40;99.90
18240;DHT22;9244;50.828;4.718;2023-12-20T12:10:46;7.40;99.90
18240;DHT22;9244;50.828;4.718;2023-12-20T12:13:12;7.50;99.90
18240;DHT22;9244;50.828;4.718;2023-12-20T12:15:42;7.60;99.90
18240;DHT22;9244;50.828;4.718;2023-12-20T12:18:10;7.60;99.90
18240;DHT22;9244;50.828;4.718;2023-12-20T12:20:36;7.70;99.90
18240;DHT22;9244;50.828;4.718;2023-12-20T12:23:03;7.70;99.90
18240;DHT22;9244;50.828;4.718;2023-12-20T12:25:34;7.70;99.90
18240;DHT22;9244;50.828;4.718;2023-12-20T12:28:01;7.70;99.90
18240;DHT22;9244;50.828;4.718;2023-12-20T12:30:29;7.70;99.90
18240;DHT22;9244;50.828;4.718;2023-12-20T12:32:56;7.80;99.90
18240;DHT22;9244;50.828;4.718;2023-12-20T12:35:22;7.70;99.90
18240;DHT22;9244;50.828;4.718;2023-12-20T12:37:51;7.70;99.90
18240;DHT22;9244;50.828;4.718;2023-12-20T12:40:17;7.60;99.90
18240;DHT22;9244;50.828;4.718;2023-12-20T12:42:44;7.60;99.90
18240;DHT22;9244;50.828;4.718;2023-12-20T12:45:10;7.70;99.90
18240;DHT22;9244;50.828;4.718;2023-12-20T12:47:39;7.70;99.90
18240;DHT22;9244;50.828;4.718;2023-12-20T12:50:05;7.80;99.90
18240;DHT22;9244;50.828;4.718;2023-12-20T12:52:33;7.90;99.90
18240;DHT22;9244;50.828;4.718;2023-12-20T12:54:59;7.90;99.90
18240;DHT22;9244;50.828;4.718;2023-12-20T12:57:26;7.90;99.90
18240;DHT22;9244;50.828;4.718;2023-12-20T12:59:54;7.90;99.90
18240;DHT22;9244;50.828;4.718;2023-12-20T13:02:23;7.90;99.90
18240;DHT22;9244;50.828;4.718;2023-12-20T13:04:49;7.90;99.90
18240;DHT22;9244;50.828;4.718;2023-12-20T13:07:17;8.00;99.90
18240;DHT22;9244;50.828;4.718;2023-12-20T13:09:45;8.00;99.90
18240;DHT22;9244;50.828;4.718;2023-12-20T13:12:10;8.00;99.90
18240;DHT22;9244;50.828;4.718;2023-12-20T13:14:36;8.00;99.90
18240;DHT22;9244;50.828;4.718;2023-12-20T13:17:06;8.00;99.90
18240;DHT22;9244;50.828;4.718;2023-12-20T13:19:31;7.90;99.90
18240;DHT22;9244;50.828;4.718;2023-12-20T13:22:00;7.90;99.90
18240;DHT22;9244;50.828;4.718;2023-12-20T13:24:25;7.90;99.90
18240;DHT22;9244;50.828;4.718;2023-12-20T13:26:53;7.90;99.90
18240;DHT22;9244;50.828;4.718;2023-12-20T13:29:19;7.90;99.90
18240;DHT22;9244;50.828;4.718;2023-12-20T13:31:45;8.00;99.90
18240;DHT22;9244;50.828;4.718;2023-12-20T13:34:13;7.90;99.90
18240;DHT22;9244;50.828;4.718;2023-12-20T13:36:38;8.00;99.90
18240;DHT22;9244;50.828;4.718;2023-12-20T13:39:04;8.00;99.90
18240;DHT22;9244;50.828;4.718;2023-12-20T13:41:32;7.90;99.90
18240;DHT22;9244;50.828;4.718;2023-12-20T13:43:58;7.90;99.90
18240;DHT22;9244;50.828;4.718;2023-12-20T13:46:23;7.90;99.90
18240;DHT22;9244;50.828;4.718;2023-12-20T13:48:52;7.90;99.90
18240;DHT22;9244;50.828;4.718;2023-12-20T13:51:18;8.00;99.90
18240;DHT22;9244;50.828;4.718;2023-12-20T13:53:48;8.00;99.90
18240;DHT22;9244;50.828;4.718;2023-12-20T13:56:15;8.00;99.90
18240;DHT22;9244;50.828;4.718;2023-12-20T13:58:41;7.90;99.90
18240;DHT22;9244;50.828;4.718;2023-12-20T14:01:11;7.90;99.90
18240;DHT22;9244;50.828;4.718;2023-12-20T14:03:41;8.00;99.90
18240;DHT22;9244;50.828;4.718;2023-12-20T14:06:07;8.00;99.90
18240;DHT22;9244;50.828;4.718;2023-12-20T14:08:34;8.00;99.90
18240;DHT22;9244;50.828;4.718;2023-12-20T14:10:59;8.00;99.90
18240;DHT22;9244;50.828;4.718;2023-12-20T14:13:26;8.00;99.90
18240;DHT22;9244;50.828;4.718;2023-12-20T14:15:52;8.00;99.90
18240;DHT22;9244;50.828;4.718;2023-12-20T14:18:22;8.10;99.90
18240;DHT22;9244;50.828;4.718;2023-12-20T14:20:49;8.10;99.90
18240;DHT22;9244;50.828;4.718;2023-12-20T14:23:18;8.10;99.90
18240;DHT22;9244;50.828;4.718;2023-12-20T14:25:44;8.10;99.90
18240;DHT22;9244;50.828;4.718;2023-12-20T14:28:09;8.10;99.90
18240;DHT22;9244;50.828;4.718;2023-12-20T14:30:40;8.20;99.90
18240;DHT22;9244;50.828;4.718;2023-12-20T14:33:06;8.20;99.90
18240;DHT22;9244;50.828;4.718;2023-12-20T14:35:32;8.20;99.90
18240;DHT22;9244;50.828;4.718;2023-12-20T14:38:02;8.30;99.90
18240;DHT22;9244;50.828;4.718;2023-12-20T14:40:28;8.30;99.90
18240;DHT22;9244;50.828;4.718;2023-12-20T14:42:54;8.30;99.90
18240;DHT22;9244;50.828;4.718;2023-12-20T14:45:20;8.30;99.90
18240;DHT22;9244;50.828;4.718;2023-12-20T14:47:47;8.30;99.90
18240;DHT22;9244;50.828;4.718;2023-12-20T14:50:13;8.20;99.90
18240;DHT22;9244;50.828;4.718;2023-12-20T14:52:46;8.30;99.90
18240;DHT22;9244;50.828;4.718;2023-12-20T14:55:12;8.30;99.90
18240;DHT22;9244;50.828;4.718;2023-12-20T14:57:37;8.40;99.90
18240;DHT22;9244;50.828;4.718;2023-12-20T15:00:05;8.40;99.90
18240;DHT22;9244;50.828;4.718;2023-12-20T15:02:30;8.40;99.90
18240;DHT22;9244;50.828;4.718;2023-12-20T15:04:57;8.40;99.90
18240;DHT22;9244;50.828;4.718;2023-12-20T15:07:25;8.40;99.90
18240;DHT22;9244;50.828;4.718;2023-12-20T15:09:50;8.40;99.90
18240;DHT22;9244;50.828;4.718;2023-12-20T15:12:16;8.40;99.90
18240;DHT22;9244;50.828;4.718;2023-12-20T15:14:41;8.40;99.90
18240;DHT22;9244;50.828;4.718;2023-12-20T15:17:12;8.40;99.90
18240;DHT22;9244;50.828;4.718;2023-12-20T15:19:37;8.40;99.90
18240;DHT22;9244;50.828;4.718;2023-12-20T15:22:03;8.50;99.90
18240;DHT22;9244;50.828;4.718;2023-12-20T15:24:29;8.50;99.90
18240;DHT22;9244;50.828;4.718;2023-12-20T15:27:04;8.50;99.90
18240;DHT22;9244;50.828;4.718;2023-12-20T15:29:33;8.50;99.90
18240;DHT22;9244;50.828;4.718;2023-12-20T15:31:59;8.50;99.90
18240;DHT22;9244;50.828;4.718;2023-12-20T15:34:25;8.50;99.90
18240;DHT22;9244;50.828;4.718;2023-12-20T15:36:50;8.50;99.90
18240;DHT22;9244;50.828;4.718;2023-12-20T15:39:18;8.50;99.90
18240;DHT22;9244;50.828;4.718;2023-12-20T15:41:44;8.50;99.90
18240;DHT22;9244;50.828;4.718;2023-12-20T15:44:10;8.50;99.90
18240;DHT22;9244;50.828;4.718;2023-12-20T15:46:35;8.60;99.90
18240;DHT22;9244;50.828;4.718;2023-12-20T15:49:01;8.60;99.90
18240;DHT22;9244;50.828;4.718;2023-12-20T15:51:27;8.60;99.90
18240;DHT22;9244;50.828;4.718;2023-12-20T15:53:52;8.60;99.90
18240;DHT22;9244;50.828;4.718;2023-12-20T15:56:18;8.60;99.90
18240;DHT22;9244;50.828;4.718;2023-12-20T15:58:44;8.60;99.90
18240;DHT22;9244;50.828;4.718;2023-12-20T16:01:10;8.60;99.90
18240;DHT22;9244;50.828;4.718;2023-12-20T16:03:36;8.60;99.90
18240;DHT22;9244;50.828;4.718;2023-12-20T16:06:04;8.60;99.90